Aullville, Missouri
Current Conditions -  °F | °C
As of 1:15 AM on Friday 31 Oct 2014 (Local Time) from KRCM Reporting Station
Clear Clear  
Wind Chill: 50°   Ceiling: Unl
Heat Index: 50°   Visibility: 10mi
Dew Point: 37°   Wind: 12mph
Humidity: 62%   Direction: 320°NW
Pressure: 30.18"   Gusts: 17mph
Location:  39.0541°N, 93.6618°W
Report Text: KRCM 310615Z AUTO 32010G15KT 10SM CLR 10/03 A3018 RMK AO2
Loading
Personal Weather Stations






























Interactive Weather Map
Tropical Storm Tracking
New forecast layout! Learn more

10-Day Weather Forecast

Advertisements
Track Severe Weather on mobile